sensor_id;sensor_type;location;lat;lon;timestamp;temperature;humidity
47336;DHT22;33068;51.990;5.926;2023-06-22T00:02:21;18.80;99.90
47336;DHT22;33068;51.990;5.926;2023-06-22T00:04:48;18.80;99.90
47336;DHT22;33068;51.990;5.926;2023-06-22T00:07:17;18.80;99.90
47336;DHT22;33068;51.990;5.926;2023-06-22T00:09:44;18.80;99.90
47336;DHT22;33068;51.990;5.926;2023-06-22T00:12:11;18.80;99.90
47336;DHT22;33068;51.990;5.926;2023-06-22T00:14:38;18.70;99.90
47336;DHT22;33068;51.990;5.926;2023-06-22T00:17:05;18.70;99.90
47336;DHT22;33068;51.990;5.926;2023-06-22T00:19:32;18.70;99.90
47336;DHT22;33068;51.990;5.926;2023-06-22T00:22:01;18.60;99.90
47336;DHT22;33068;51.990;5.926;2023-06-22T00:24:30;18.60;99.90
47336;DHT22;33068;51.990;5.926;2023-06-22T00:26:57;18.60;99.90
47336;DHT22;33068;51.990;5.926;2023-06-22T00:29:24;18.60;99.90
47336;DHT22;33068;51.990;5.926;2023-06-22T00:31:51;18.60;99.90
47336;DHT22;33068;51.990;5.926;2023-06-22T00:34:21;18.60;99.90
47336;DHT22;33068;51.990;5.926;2023-06-22T00:36:49;18.50;99.90
47336;DHT22;33068;51.990;5.926;2023-06-22T00:39:17;18.50;99.90
47336;DHT22;33068;51.990;5.926;2023-06-22T00:41:45;18.60;99.90
47336;DHT22;33068;51.990;5.926;2023-06-22T00:44:13;18.60;99.90
47336;DHT22;33068;51.990;5.926;2023-06-22T00:46:40;18.50;99.90
47336;DHT22;33068;51.990;5.926;2023-06-22T00:49:07;18.50;99.90
47336;DHT22;33068;51.990;5.926;2023-06-22T00:51:34;18.40;99.90
47336;DHT22;33068;51.990;5.926;2023-06-22T00:54:05;18.40;99.90
47336;DHT22;33068;51.990;5.926;2023-06-22T00:56:32;18.40;99.90
47336;DHT22;33068;51.990;5.926;2023-06-22T00:59:04;18.30;99.90
47336;DHT22;33068;51.990;5.926;2023-06-22T01:01:32;18.40;99.90
47336;DHT22;33068;51.990;5.926;2023-06-22T01:04:08;18.30;99.90
47336;DHT22;33068;51.990;5.926;2023-06-22T01:06:54;18.30;99.90
47336;DHT22;33068;51.990;5.926;2023-06-22T01:10:18;18.20;99.90
47336;DHT22;33068;51.990;5.926;2023-06-22T01:13:32;18.60;99.90
47336;DHT22;33068;51.990;5.926;2023-06-22T01:16:33;18.20;99.90
47336;DHT22;33068;51.990;5.926;2023-06-22T01:19:25;18.10;99.90
47336;DHT22;33068;51.990;5.926;2023-06-22T01:22:23;18.00;99.90
47336;DHT22;33068;51.990;5.926;2023-06-22T01:25:07;17.80;99.90
47336;DHT22;33068;51.990;5.926;2023-06-22T01:27:50;18.00;99.90
47336;DHT22;33068;51.990;5.926;2023-06-22T01:30:39;18.00;99.90
47336;DHT22;33068;51.990;5.926;2023-06-22T01:33:35;17.90;99.90
47336;DHT22;33068;51.990;5.926;2023-06-22T01:36:21;18.10;99.90
47336;DHT22;33068;51.990;5.926;2023-06-22T01:39:27;17.90;99.90
47336;DHT22;33068;51.990;5.926;2023-06-22T01:42:04;17.90;99.90
47336;DHT22;33068;51.990;5.926;2023-06-22T01:44:42;17.90;99.90
47336;DHT22;33068;51.990;5.926;2023-06-22T01:47:44;17.80;99.90
47336;DHT22;33068;51.990;5.926;2023-06-22T01:50:24;17.90;99.90
47336;DHT22;33068;51.990;5.926;2023-06-22T01:53:00;17.90;99.90
47336;DHT22;33068;51.990;5.926;2023-06-22T01:55:37;17.90;99.90
47336;DHT22;33068;51.990;5.926;2023-06-22T01:58:04;17.90;99.90
47336;DHT22;33068;51.990;5.926;2023-06-22T02:00:37;17.90;99.90
47336;DHT22;33068;51.990;5.926;2023-06-22T02:03:10;17.90;99.90
47336;DHT22;33068;51.990;5.926;2023-06-22T02:05:46;17.90;99.90
47336;DHT22;33068;51.990;5.926;2023-06-22T02:08:19;17.90;99.90
47336;DHT22;33068;51.990;5.926;2023-06-22T02:10:48;17.90;99.90
47336;DHT22;33068;51.990;5.926;2023-06-22T02:13:19;17.90;99.90
47336;DHT22;33068;51.990;5.926;2023-06-22T02:15:50;17.90;99.90
47336;DHT22;33068;51.990;5.926;2023-06-22T02:18:19;17.80;99.90
47336;DHT22;33068;51.990;5.926;2023-06-22T02:20:46;17.80;99.90
47336;DHT22;33068;51.990;5.926;2023-06-22T02:23:14;17.80;99.90
47336;DHT22;33068;51.990;5.926;2023-06-22T02:25:41;17.70;99.90
47336;DHT22;33068;51.990;5.926;2023-06-22T02:28:10;17.60;99.90
47336;DHT22;33068;51.990;5.926;2023-06-22T02:30:37;17.60;99.90
47336;DHT22;33068;51.990;5.926;2023-06-22T02:33:06;17.60;99.90
47336;DHT22;33068;51.990;5.926;2023-06-22T02:35:35;17.50;99.90
47336;DHT22;33068;51.990;5.926;2023-06-22T02:38:03;17.50;99.90
47336;DHT22;33068;51.990;5.926;2023-06-22T02:40:31;17.50;99.90
47336;DHT22;33068;51.990;5.926;2023-06-22T02:42:58;17.50;99.90
47336;DHT22;33068;51.990;5.926;2023-06-22T02:45:28;17.50;99.90
47336;DHT22;33068;51.990;5.926;2023-06-22T02:47:55;17.50;99.90
47336;DHT22;33068;51.990;5.926;2023-06-22T02:50:23;17.50;99.90
47336;DHT22;33068;51.990;5.926;2023-06-22T02:52:52;17.50;99.90
47336;DHT22;33068;51.990;5.926;2023-06-22T02:55:20;17.50;99.90
47336;DHT22;33068;51.990;5.926;2023-06-22T02:57:54;17.40;99.90
47336;DHT22;33068;51.990;5.926;2023-06-22T03:00:23;17.50;99.90
47336;DHT22;33068;51.990;5.926;2023-06-22T03:05:10;17.40;99.90
47336;DHT22;33068;51.990;5.926;2023-06-22T03:06:56;17.50;99.90
47336;DHT22;33068;51.990;5.926;2023-06-22T03:09:37;17.30;99.90
47336;DHT22;33068;51.990;5.926;2023-06-22T03:14:53;17.50;99.90
47336;DHT22;33068;51.990;5.926;2023-06-22T03:17:20;17.60;99.90
47336;DHT22;33068;51.990;5.926;2023-06-22T03:19:50;17.60;99.90
47336;DHT22;33068;51.990;5.926;2023-06-22T03:22:23;17.60;99.90
47336;DHT22;33068;51.990;5.926;2023-06-22T03:24:57;17.60;99.90
47336;DHT22;33068;51.990;5.926;2023-06-22T03:30:23;17.60;99.90
47336;DHT22;33068;51.990;5.926;2023-06-22T03:32:50;17.60;99.90
47336;DHT22;33068;51.990;5.926;2023-06-22T03:35:26;17.60;99.90
47336;DHT22;33068;51.990;5.926;2023-06-22T03:37:56;17.60;99.90
47336;DHT22;33068;51.990;5.926;2023-06-22T03:40:42;17.60;99.90
47336;DHT22;33068;51.990;5.926;2023-06-22T03:43:12;17.60;99.90
47336;DHT22;33068;51.990;5.926;2023-06-22T03:46:03;17.50;99.90
47336;DHT22;33068;51.990;5.926;2023-06-22T03:48:30;17.50;99.90
47336;DHT22;33068;51.990;5.926;2023-06-22T03:51:07;17.50;99.90
47336;DHT22;33068;51.990;5.926;2023-06-22T03:53:37;17.50;99.90
47336;DHT22;33068;51.990;5.926;2023-06-22T03:56:13;17.40;99.90
47336;DHT22;33068;51.990;5.926;2023-06-22T03:59:03;17.40;99.90
47336;DHT22;33068;51.990;5.926;2023-06-22T04:01:31;17.40;99.90
47336;DHT22;33068;51.990;5.926;2023-06-22T04:03:58;17.40;99.90
47336;DHT22;33068;51.990;5.926;2023-06-22T04:06:25;17.50;99.90
47336;DHT22;33068;51.990;5.926;2023-06-22T04:08:59;17.50;99.90
47336;DHT22;33068;51.990;5.926;2023-06-22T04:11:28;17.60;99.90
47336;DHT22;33068;51.990;5.926;2023-06-22T04:13:57;17.60;99.90
47336;DHT22;33068;51.990;5.926;2023-06-22T04:16:24;17.70;99.90
47336;DHT22;33068;51.990;5.926;2023-06-22T04:18:51;17.60;99.90
47336;DHT22;33068;51.990;5.926;2023-06-22T04:21:21;17.60;99.90
47336;DHT22;33068;51.990;5.926;2023-06-22T04:23:48;17.60;99.90
47336;DHT22;33068;51.990;5.926;2023-06-22T04:26:15;17.60;99.90
47336;DHT22;33068;51.990;5.926;2023-06-22T04:32:10;17.60;99.90
47336;DHT22;33068;51.990;5.926;2023-06-22T04:34:40;17.70;99.90
47336;DHT22;33068;51.990;5.926;2023-06-22T04:37:23;17.70;99.90
47336;DHT22;33068;51.990;5.926;2023-06-22T04:39:50;17.70;99.90
47336;DHT22;33068;51.990;5.926;2023-06-22T04:42:21;17.80;99.90
47336;DHT22;33068;51.990;5.926;2023-06-22T04:44:53;17.80;99.90
47336;DHT22;33068;51.990;5.926;2023-06-22T04:48:13;17.90;99.90
47336;DHT22;33068;51.990;5.926;2023-06-22T04:50:50;17.90;99.90
47336;DHT22;33068;51.990;5.926;2023-06-22T04:53:30;18.00;99.90
47336;DHT22;33068;51.990;5.926;2023-06-22T04:56:00;18.00;99.90
47336;DHT22;33068;51.990;5.926;2023-06-22T04:58:30;18.00;99.90
47336;DHT22;33068;51.990;5.926;2023-06-22T05:01:06;18.10;99.90
47336;DHT22;33068;51.990;5.926;2023-06-22T05:03:37;18.20;99.90
47336;DHT22;33068;51.990;5.926;2023-06-22T05:06:09;18.20;99.90
47336;DHT22;33068;51.990;5.926;2023-06-22T05:08:40;18.30;99.90
47336;DHT22;33068;51.990;5.926;2023-06-22T05:11:07;18.40;99.90
47336;DHT22;33068;51.990;5.926;2023-06-22T05:13:34;18.50;99.90
47336;DHT22;33068;51.990;5.926;2023-06-22T05:16:02;18.60;99.90
47336;DHT22;33068;51.990;5.926;2023-06-22T05:18:31;18.70;99.90
47336;DHT22;33068;51.990;5.926;2023-06-22T05:20:58;18.80;99.90
47336;DHT22;33068;51.990;5.926;2023-06-22T05:23:26;18.90;99.90
47336;DHT22;33068;51.990;5.926;2023-06-22T05:26:03;19.00;99.90
47336;DHT22;33068;51.990;5.926;2023-06-22T05:28:31;19.10;99.90
47336;DHT22;33068;51.990;5.926;2023-06-22T05:30:59;19.20;99.90
47336;DHT22;33068;51.990;5.926;2023-06-22T05:33:31;19.30;99.90
47336;DHT22;33068;51.990;5.926;2023-06-22T05:35:59;19.40;99.90
47336;DHT22;33068;51.990;5.926;2023-06-22T05:38:29;19.50;99.90
47336;DHT22;33068;51.990;5.926;2023-06-22T05:40:57;19.80;99.90
47336;DHT22;33068;51.990;5.926;2023-06-22T05:43:27;19.60;99.90
47336;DHT22;33068;51.990;5.926;2023-06-22T05:45:54;19.80;99.90
47336;DHT22;33068;51.990;5.926;2023-06-22T05:48:21;19.80;99.90
47336;DHT22;33068;51.990;5.926;2023-06-22T05:50:50;19.80;99.90
47336;DHT22;33068;51.990;5.926;2023-06-22T05:53:17;19.90;99.90
47336;DHT22;33068;51.990;5.926;2023-06-22T05:55:44;20.00;99.90
47336;DHT22;33068;51.990;5.926;2023-06-22T05:58:12;20.00;99.90
47336;DHT22;33068;51.990;5.926;2023-06-22T06:00:40;20.10;99.90
47336;DHT22;33068;51.990;5.926;2023-06-22T06:03:08;20.20;99.90
47336;DHT22;33068;51.990;5.926;2023-06-22T06:05:36;20.30;99.90
47336;DHT22;33068;51.990;5.926;2023-06-22T06:08:06;20.30;99.90
47336;DHT22;33068;51.990;5.926;2023-06-22T06:10:33;20.40;99.90
47336;DHT22;33068;51.990;5.926;2023-06-22T06:13:00;20.50;99.90
47336;DHT22;33068;51.990;5.926;2023-06-22T06:15:30;20.70;99.90
47336;DHT22;33068;51.990;5.926;2023-06-22T06:17:57;20.90;99.90
47336;DHT22;33068;51.990;5.926;2023-06-22T06:20:26;20.90;99.90
47336;DHT22;33068;51.990;5.926;2023-06-22T06:22:53;20.90;99.90
47336;DHT22;33068;51.990;5.926;2023-06-22T06:25:22;21.00;99.90
47336;DHT22;33068;51.990;5.926;2023-06-22T06:27:51;21.10;99.90
47336;DHT22;33068;51.990;5.926;2023-06-22T06:30:20;21.20;99.90
47336;DHT22;33068;51.990;5.926;2023-06-22T06:32:48;21.20;99.90
47336;DHT22;33068;51.990;5.926;2023-06-22T06:35:16;21.30;99.90
47336;DHT22;33068;51.990;5.926;2023-06-22T06:37:46;21.40;99.90
47336;DHT22;33068;51.990;5.926;2023-06-22T06:40:14;21.40;99.90
47336;DHT22;33068;51.990;5.926;2023-06-22T06:42:45;21.60;99.90
47336;DHT22;33068;51.990;5.926;2023-06-22T06:45:15;21.70;99.90
47336;DHT22;33068;51.990;5.926;2023-06-22T06:47:43;21.90;99.90
47336;DHT22;33068;51.990;5.926;2023-06-22T06:50:10;22.00;99.90
47336;DHT22;33068;51.990;5.926;2023-06-22T06:52:38;22.10;99.90
47336;DHT22;33068;51.990;5.926;2023-06-22T06:55:05;22.20;99.90
47336;DHT22;33068;51.990;5.926;2023-06-22T06:57:35;22.30;99.90
47336;DHT22;33068;51.990;5.926;2023-06-22T07:00:06;22.40;99.90
47336;DHT22;33068;51.990;5.926;2023-06-22T07:02:38;22.50;99.90
47336;DHT22;33068;51.990;5.926;2023-06-22T07:05:05;22.60;99.90
47336;DHT22;33068;51.990;5.926;2023-06-22T07:07:33;22.70;99.90
47336;DHT22;33068;51.990;5.926;2023-06-22T07:10:01;22.80;99.90
47336;DHT22;33068;51.990;5.926;2023-06-22T07:12:29;22.90;99.90
47336;DHT22;33068;51.990;5.926;2023-06-22T07:15:01;22.80;99.90
47336;DHT22;33068;51.990;5.926;2023-06-22T07:17:31;22.70;99.90
47336;DHT22;33068;51.990;5.926;2023-06-22T07:20:03;22.60;99.90
47336;DHT22;33068;51.990;5.926;2023-06-22T07:22:33;22.60;99.90
47336;DHT22;33068;51.990;5.926;2023-06-22T07:25:04;22.70;99.90
47336;DHT22;33068;51.990;5.926;2023-06-22T07:27:36;22.90;99.90
47336;DHT22;33068;51.990;5.926;2023-06-22T07:30:06;23.10;99.90
47336;DHT22;33068;51.990;5.926;2023-06-22T07:32:35;23.40;99.90
47336;DHT22;33068;51.990;5.926;2023-06-22T07:35:05;23.40;99.90
47336;DHT22;33068;51.990;5.926;2023-06-22T07:37:32;23.50;99.90
47336;DHT22;33068;51.990;5.926;2023-06-22T07:40:00;23.70;99.90
47336;DHT22;33068;51.990;5.926;2023-06-22T07:42:31;23.70;99.90
47336;DHT22;33068;51.990;5.926;2023-06-22T07:45:00;23.90;99.90
47336;DHT22;33068;51.990;5.926;2023-06-22T07:47:28;24.00;99.90
47336;DHT22;33068;51.990;5.926;2023-06-22T07:49:58;24.00;99.90
47336;DHT22;33068;51.990;5.926;2023-06-22T07:52:31;24.00;99.90
47336;DHT22;33068;51.990;5.926;2023-06-22T07:55:34;24.00;99.90
47336;DHT22;33068;51.990;5.926;2023-06-22T07:58:52;24.10;99.90
47336;DHT22;33068;51.990;5.926;2023-06-22T08:01:29;24.10;99.90
47336;DHT22;33068;51.990;5.926;2023-06-22T08:04:25;24.20;99.90
47336;DHT22;33068;51.990;5.926;2023-06-22T08:07:21;24.20;99.90
47336;DHT22;33068;51.990;5.926;2023-06-22T08:10:44;24.20;99.90
47336;DHT22;33068;51.990;5.926;2023-06-22T08:19:06;24.30;99.90
47336;DHT22;33068;51.990;5.926;2023-06-22T08:27:47;24.40;99.90
47336;DHT22;33068;51.990;5.926;2023-06-22T08:30:16;24.20;99.90
47336;DHT22;33068;51.990;5.926;2023-06-22T08:33:04;24.40;99.90
47336;DHT22;33068;51.990;5.926;2023-06-22T08:35:32;24.40;99.90
47336;DHT22;33068;51.990;5.926;2023-06-22T08:38:06;24.50;99.90
47336;DHT22;33068;51.990;5.926;2023-06-22T08:40:36;24.70;99.90
47336;DHT22;33068;51.990;5.926;2023-06-22T08:43:03;25.20;99.90
47336;DHT22;33068;51.990;5.926;2023-06-22T08:45:31;25.70;99.90
47336;DHT22;33068;51.990;5.926;2023-06-22T08:47:58;25.70;99.90
47336;DHT22;33068;51.990;5.926;2023-06-22T08:50:26;25.60;99.90
47336;DHT22;33068;51.990;5.926;2023-06-22T08:52:54;25.60;99.90
47336;DHT22;33068;51.990;5.926;2023-06-22T08:55:21;25.50;99.90
47336;DHT22;33068;51.990;5.926;2023-06-22T08:57:49;25.40;99.90
47336;DHT22;33068;51.990;5.926;2023-06-22T09:00:17;25.20;99.90
47336;DHT22;33068;51.990;5.926;2023-06-22T09:02:46;25.10;99.90
47336;DHT22;33068;51.990;5.926;2023-06-22T09:05:14;25.00;99.90
47336;DHT22;33068;51.990;5.926;2023-06-22T09:07:41;24.90;99.90
47336;DHT22;33068;51.990;5.926;2023-06-22T09:10:09;25.10;99.90
47336;DHT22;33068;51.990;5.926;2023-06-22T09:12:36;25.10;99.90
47336;DHT22;33068;51.990;5.926;2023-06-22T09:15:06;25.40;99.90
47336;DHT22;33068;51.990;5.926;2023-06-22T09:17:34;25.60;99.60
47336;DHT22;33068;51.990;5.926;2023-06-22T09:20:03;26.00;99.90
47336;DHT22;33068;51.990;5.926;2023-06-22T09:22:33;26.40;98.70
47336;DHT22;33068;51.990;5.926;2023-06-22T09:25:00;26.30;97.30
47336;DHT22;33068;51.990;5.926;2023-06-22T09:27:29;26.20;97.20
47336;DHT22;33068;51.990;5.926;2023-06-22T09:29:56;26.20;96.60
47336;DHT22;33068;51.990;5.926;2023-06-22T09:32:25;26.20;96.00
47336;DHT22;33068;51.990;5.926;2023-06-22T09:34:52;26.00;98.00
47336;DHT22;33068;51.990;5.926;2023-06-22T09:37:19;26.10;96.70
47336;DHT22;33068;51.990;5.926;2023-06-22T09:43:23;26.20;95.60
47336;DHT22;33068;51.990;5.926;2023-06-22T09:45:52;26.00;96.50
47336;DHT22;33068;51.990;5.926;2023-06-22T09:48:29;25.90;95.30
47336;DHT22;33068;51.990;5.926;2023-06-22T09:51:17;25.70;96.20
47336;DHT22;33068;51.990;5.926;2023-06-22T09:56:49;25.50;96.10
47336;DHT22;33068;51.990;5.926;2023-06-22T09:59:16;25.80;96.30
47336;DHT22;33068;51.990;5.926;2023-06-22T10:01:44;25.90;96.60
47336;DHT22;33068;51.990;5.926;2023-06-22T10:04:15;25.50;97.10
47336;DHT22;33068;51.990;5.926;2023-06-22T10:06:44;25.70;96.40
47336;DHT22;33068;51.990;5.926;2023-06-22T10:09:11;25.70;96.10
47336;DHT22;33068;51.990;5.926;2023-06-22T10:11:53;25.60;96.80
47336;DHT22;33068;51.990;5.926;2023-06-22T10:14:23;25.40;95.60
47336;DHT22;33068;51.990;5.926;2023-06-22T10:16:52;25.30;96.50
47336;DHT22;33068;51.990;5.926;2023-06-22T10:19:27;25.20;96.30
47336;DHT22;33068;51.990;5.926;2023-06-22T10:22:11;25.00;96.80
47336;DHT22;33068;51.990;5.926;2023-06-22T10:24:42;24.90;96.90
47336;DHT22;33068;51.990;5.926;2023-06-22T10:27:19;25.00;98.10
47336;DHT22;33068;51.990;5.926;2023-06-22T10:29:46;24.80;97.80
47336;DHT22;33068;51.990;5.926;2023-06-22T10:32:19;24.60;97.50
47336;DHT22;33068;51.990;5.926;2023-06-22T10:34:49;24.80;97.80
47336;DHT22;33068;51.990;5.926;2023-06-22T10:37:20;24.80;97.50
47336;DHT22;33068;51.990;5.926;2023-06-22T10:39:47;24.80;97.80
47336;DHT22;33068;51.990;5.926;2023-06-22T10:42:14;24.90;98.50
47336;DHT22;33068;51.990;5.926;2023-06-22T10:44:43;25.10;97.00
47336;DHT22;33068;51.990;5.926;2023-06-22T10:47:11;25.10;97.40
47336;DHT22;33068;51.990;5.926;2023-06-22T10:49:38;25.20;97.10
47336;DHT22;33068;51.990;5.926;2023-06-22T10:52:08;25.20;98.20
47336;DHT22;33068;51.990;5.926;2023-06-22T10:54:38;25.20;97.50
47336;DHT22;33068;51.990;5.926;2023-06-22T10:57:21;25.10;98.50
47336;DHT22;33068;51.990;5.926;2023-06-22T10:59:59;25.20;97.40
47336;DHT22;33068;51.990;5.926;2023-06-22T11:02:29;25.20;97.10
47336;DHT22;33068;51.990;5.926;2023-06-22T11:04:56;25.10;97.60
47336;DHT22;33068;51.990;5.926;2023-06-22T11:07:30;25.20;97.40
47336;DHT22;33068;51.990;5.926;2023-06-22T11:09:58;25.20;97.50
47336;DHT22;33068;51.990;5.926;2023-06-22T11:12:25;25.20;96.80
47336;DHT22;33068;51.990;5.926;2023-06-22T11:15:05;25.10;97.20
47336;DHT22;33068;51.990;5.926;2023-06-22T11:17:42;25.00;97.50
47336;DHT22;33068;51.990;5.926;2023-06-22T11:20:11;24.90;97.20
47336;DHT22;33068;51.990;5.926;2023-06-22T11:22:40;24.80;97.90
47336;DHT22;33068;51.990;5.926;2023-06-22T11:25:15;24.80;99.10
47336;DHT22;33068;51.990;5.926;2023-06-22T11:27:42;24.80;99.90
47336;DHT22;33068;51.990;5.926;2023-06-22T11:30:10;24.80;99.90
47336;DHT22;33068;51.990;5.926;2023-06-22T11:32:38;24.60;99.90
47336;DHT22;33068;51.990;5.926;2023-06-22T11:35:12;24.40;99.90
47336;DHT22;33068;51.990;5.926;2023-06-22T11:37:41;24.20;99.90
47336;DHT22;33068;51.990;5.926;2023-06-22T11:40:10;24.00;99.90
47336;DHT22;33068;51.990;5.926;2023-06-22T11:42:37;23.90;99.90
47336;DHT22;33068;51.990;5.926;2023-06-22T11:45:06;23.60;99.90
47336;DHT22;33068;51.990;5.926;2023-06-22T11:47:33;23.40;99.90
47336;DHT22;33068;51.990;5.926;2023-06-22T11:50:01;23.20;99.90
47336;DHT22;33068;51.990;5.926;2023-06-22T11:52:28;23.10;99.90
47336;DHT22;33068;51.990;5.926;2023-06-22T11:54:56;23.00;99.90
47336;DHT22;33068;51.990;5.926;2023-06-22T11:57:25;22.80;99.90
47336;DHT22;33068;51.990;5.926;2023-06-22T11:59:52;22.60;99.90
47336;DHT22;33068;51.990;5.926;2023-06-22T12:02:19;22.40;99.90
47336;DHT22;33068;51.990;5.926;2023-06-22T12:04:46;22.40;99.90
47336;DHT22;33068;51.990;5.926;2023-06-22T12:07:13;22.30;99.90
47336;DHT22;33068;51.990;5.926;2023-06-22T12:09:44;22.20;99.90
47336;DHT22;33068;51.990;5.926;2023-06-22T12:12:12;22.00;99.90
47336;DHT22;33068;51.990;5.926;2023-06-22T12:14:39;21.90;99.90
47336;DHT22;33068;51.990;5.926;2023-06-22T12:17:06;21.80;99.90
47336;DHT22;33068;51.990;5.926;2023-06-22T12:19:34;21.70;99.90
47336;DHT22;33068;51.990;5.926;2023-06-22T12:22:01;21.50;99.90
47336;DHT22;33068;51.990;5.926;2023-06-22T12:24:28;21.50;99.90
47336;DHT22;33068;51.990;5.926;2023-06-22T12:26:56;21.30;99.90
47336;DHT22;33068;51.990;5.926;2023-06-22T12:29:24;21.20;99.90
47336;DHT22;33068;51.990;5.926;2023-06-22T12:31:51;21.10;99.90
47336;DHT22;33068;51.990;5.926;2023-06-22T12:34:19;20.90;99.90
47336;DHT22;33068;51.990;5.926;2023-06-22T12:36:46;20.70;99.90
47336;DHT22;33068;51.990;5.926;2023-06-22T12:39:14;20.60;99.90
47336;DHT22;33068;51.990;5.926;2023-06-22T12:41:41;20.60;99.90
47336;DHT22;33068;51.990;5.926;2023-06-22T12:44:08;20.40;99.90
47336;DHT22;33068;51.990;5.926;2023-06-22T12:46:37;20.30;99.90
47336;DHT22;33068;51.990;5.926;2023-06-22T12:49:05;20.30;99.90
47336;DHT22;33068;51.990;5.926;2023-06-22T12:51:32;20.30;99.90
47336;DHT22;33068;51.990;5.926;2023-06-22T12:53:59;20.40;99.90
47336;DHT22;33068;51.990;5.926;2023-06-22T12:56:26;20.30;99.90
47336;DHT22;33068;51.990;5.926;2023-06-22T12:58:53;20.30;99.90
47336;DHT22;33068;51.990;5.926;2023-06-22T13:01:20;20.30;99.90
47336;DHT22;33068;51.990;5.926;2023-06-22T13:03:49;20.20;99.90
47336;DHT22;33068;51.990;5.926;2023-06-22T13:06:16;20.10;99.90
47336;DHT22;33068;51.990;5.926;2023-06-22T13:08:43;20.10;99.90
47336;DHT22;33068;51.990;5.926;2023-06-22T13:11:11;20.10;99.90
47336;DHT22;33068;51.990;5.926;2023-06-22T13:13:41;20.10;99.90
47336;DHT22;33068;51.990;5.926;2023-06-22T13:16:08;20.00;99.90
47336;DHT22;33068;51.990;5.926;2023-06-22T13:18:35;20.00;99.90
47336;DHT22;33068;51.990;5.926;2023-06-22T13:21:04;19.90;99.90
47336;DHT22;33068;51.990;5.926;2023-06-22T13:23:31;19.90;99.90
47336;DHT22;33068;51.990;5.926;2023-06-22T13:26:03;19.90;99.90
47336;DHT22;33068;51.990;5.926;2023-06-22T13:28:30;19.80;99.90
47336;DHT22;33068;51.990;5.926;2023-06-22T13:30:57;19.70;99.90
47336;DHT22;33068;51.990;5.926;2023-06-22T13:33:25;19.70;99.90
47336;DHT22;33068;51.990;5.926;2023-06-22T13:35:52;19.80;99.90
47336;DHT22;33068;51.990;5.926;2023-06-22T13:38:20;19.80;99.90
47336;DHT22;33068;51.990;5.926;2023-06-22T13:40:48;19.70;99.90
47336;DHT22;33068;51.990;5.926;2023-06-22T13:43:16;19.60;99.90
47336;DHT22;33068;51.990;5.926;2023-06-22T13:45:44;19.60;99.90
47336;DHT22;33068;51.990;5.926;2023-06-22T13:48:11;19.60;99.90
47336;DHT22;33068;51.990;5.926;2023-06-22T13:50:38;19.60;99.90
47336;DHT22;33068;51.990;5.926;2023-06-22T13:53:07;19.60;99.90
47336;DHT22;33068;51.990;5.926;2023-06-22T13:55:35;19.60;99.90
47336;DHT22;33068;51.990;5.926;2023-06-22T13:58:03;19.70;99.90
47336;DHT22;33068;51.990;5.926;2023-06-22T14:00:30;19.70;99.90
47336;DHT22;33068;51.990;5.926;2023-06-22T14:02:57;19.70;99.90
47336;DHT22;33068;51.990;5.926;2023-06-22T14:05:24;19.60;99.90
47336;DHT22;33068;51.990;5.926;2023-06-22T14:07:56;19.70;99.90
47336;DHT22;33068;51.990;5.926;2023-06-22T14:10:27;19.70;99.90
47336;DHT22;33068;51.990;5.926;2023-06-22T14:12:55;19.70;99.90
47336;DHT22;33068;51.990;5.926;2023-06-22T14:15:23;19.70;99.90
47336;DHT22;33068;51.990;5.926;2023-06-22T14:17:50;19.60;99.90
47336;DHT22;33068;51.990;5.926;2023-06-22T14:20:18;19.60;99.90
47336;DHT22;33068;51.990;5.926;2023-06-22T14:22:45;19.60;99.90
47336;DHT22;33068;51.990;5.926;2023-06-22T14:25:12;19.60;99.90
47336;DHT22;33068;51.990;5.926;2023-06-22T14:27:39;19.60;99.90
47336;DHT22;33068;51.990;5.926;2023-06-22T14:30:09;19.70;99.90
47336;DHT22;33068;51.990;5.926;2023-06-22T14:32:36;19.70;99.90
47336;DHT22;33068;51.990;5.926;2023-06-22T14:35:03;19.60;99.90
47336;DHT22;33068;51.990;5.926;2023-06-22T14:37:31;19.60;99.90
47336;DHT22;33068;51.990;5.926;2023-06-22T14:39:58;19.60;99.90
47336;DHT22;33068;51.990;5.926;2023-06-22T14:42:25;19.60;99.90
47336;DHT22;33068;51.990;5.926;2023-06-22T14:44:54;19.60;99.90
47336;DHT22;33068;51.990;5.926;2023-06-22T14:47:22;19.50;99.90
47336;DHT22;33068;51.990;5.926;2023-06-22T14:49:50;19.50;99.90
47336;DHT22;33068;51.990;5.926;2023-06-22T14:52:17;19.50;99.90
47336;DHT22;33068;51.990;5.926;2023-06-22T14:54:44;19.50;99.90
47336;DHT22;33068;51.990;5.926;2023-06-22T14:57:11;19.40;99.90
47336;DHT22;33068;51.990;5.926;2023-06-22T14:59:38;19.30;99.90
47336;DHT22;33068;51.990;5.926;2023-06-22T15:02:05;19.20;99.90
47336;DHT22;33068;51.990;5.926;2023-06-22T15:04:34;19.20;99.90
47336;DHT22;33068;51.990;5.926;2023-06-22T15:07:05;19.10;99.90
47336;DHT22;33068;51.990;5.926;2023-06-22T15:09:32;19.10;99.90
47336;DHT22;33068;51.990;5.926;2023-06-22T15:12:00;19.00;99.90
47336;DHT22;33068;51.990;5.926;2023-06-22T15:14:31;18.90;99.90
47336;DHT22;33068;51.990;5.926;2023-06-22T15:16:58;18.80;99.90
47336;DHT22;33068;51.990;5.926;2023-06-22T15:19:25;18.90;99.90
47336;DHT22;33068;51.990;5.926;2023-06-22T15:21:58;18.60;99.90
47336;DHT22;33068;51.990;5.926;2023-06-22T15:24:26;18.50;99.90
47336;DHT22;33068;51.990;5.926;2023-06-22T15:26:53;18.50;99.90
47336;DHT22;33068;51.990;5.926;2023-06-22T15:29:23;18.50;99.90
47336;DHT22;33068;51.990;5.926;2023-06-22T15:31:51;18.50;99.90
47336;DHT22;33068;51.990;5.926;2023-06-22T15:34:18;18.60;99.90
47336;DHT22;33068;51.990;5.926;2023-06-22T15:36:45;18.60;99.90
47336;DHT22;33068;51.990;5.926;2023-06-22T15:39:14;18.70;99.90
47336;DHT22;33068;51.990;5.926;2023-06-22T15:41:42;18.60;99.90
47336;DHT22;33068;51.990;5.926;2023-06-22T15:44:09;18.70;99.90
47336;DHT22;33068;51.990;5.926;2023-06-22T15:46:43;18.70;99.90
47336;DHT22;33068;51.990;5.926;2023-06-22T15:49:22;18.70;99.90
47336;DHT22;33068;51.990;5.926;2023-06-22T15:51:49;18.70;99.90
47336;DHT22;33068;51.990;5.926;2023-06-22T15:54:17;18.70;99.90
47336;DHT22;33068;51.990;5.926;2023-06-22T15:56:44;18.70;99.90
47336;DHT22;33068;51.990;5.926;2023-06-22T15:59:13;18.70;99.90
47336;DHT22;33068;51.990;5.926;2023-06-22T16:01:41;18.70;99.90
47336;DHT22;33068;51.990;5.926;2023-06-22T16:04:08;18.70;99.90
47336;DHT22;33068;51.990;5.926;2023-06-22T16:06:35;18.70;99.90
47336;DHT22;33068;51.990;5.926;2023-06-22T16:09:02;18.60;99.90
47336;DHT22;33068;51.990;5.926;2023-06-22T16:11:32;18.70;99.90
47336;DHT22;33068;51.990;5.926;2023-06-22T16:13:59;18.60;99.90
47336;DHT22;33068;51.990;5.926;2023-06-22T16:16:26;18.70;99.90
47336;DHT22;33068;51.990;5.926;2023-06-22T16:18:54;18.70;99.90
47336;DHT22;33068;51.990;5.926;2023-06-22T16:21:21;18.60;99.90
47336;DHT22;33068;51.990;5.926;2023-06-22T16:23:48;18.70;99.90